OSOK1: Oswego hwy 160

Data processed at Tue May 21 2019 23:50


All information presented herein is the property of the government of the United States of America and may be revised or deleted at any time without prior notice.
Dissemination of this information without the expressed written consent of the Public Affairs Office, Tulsa District U.S. Army Corps of Engineers is strictly prohibited.
These data are gathered electronically and, as presented, have not undergone any form of quality control. These data are not guaranteed to be valid or correct.
Go to home page.
Go to station list.
Go to home page.

Upstream stations:

Downstream station:
Previous Day
Next Day
Current Day
    
SHEF ID:       OSOK1     Oswego hwy 160
STATION TYPE:  

               PRECIP     STAGE  RIV-FLOW   VOLTAGE  BAT-LOAD
                   in        ft       cfs      volt      volt
              Ccp-Rev   Ccp-Rev   Ccp-Rev   Ccp-Rev   Ccp-Rev
(US/Central)
05/21 00:00      0.13     26.99     23610     12.49     12.33
05/21 01:00      0.06     27.56     24689     12.49     12.33
05/21 02:00      0.26     28.06     25649     12.49     12.33
05/21 03:00      0.05     28.52     26543     12.49     12.33
05/21 04:00      0.00     28.88     27250     12.49     12.33
05/21 05:00      0.01     29.20     27952     12.49     12.33
05/21 06:00      0.00     29.46     28637     12.49     12.33
05/21 07:00      0.01     29.65     29143     12.49     12.33
05/21 08:00      0.02     29.82     29599     12.49     12.33
05/21 09:00      0.42     30.05     30222     12.49     12.33
05/21 10:00      0.16     30.24     30742     12.49     12.33
05/21 11:00      0.15     30.37     31100     12.49     12.33
05/21 12:00      0.00     30.55     31599     13.05     12.81
05/21 13:00      0.05     30.67     31934     12.97     12.89
05/21 14:00      0.03     30.71     32047     12.81     12.73
05/21 15:00      0.00     30.81     32328     13.29     12.65
05/21 16:00      0.00     30.93     32666     13.44     13.29
05/21 17:00      0.00     31.05     33007     13.37     13.29
05/21 18:00      0.00     31.20     33435     13.21     13.05
05/21 19:00      0.00     31.35     33866     13.05     12.89
05/21 20:00      0.00     31.51     34329     12.81     12.73
05/21 21:00      0.00     31.71     34912     12.73     12.65
05/21 22:00      0.00     31.91     35500     12.73     12.57
05/21 23:00      0.00     32.11     36093     12.65     12.57